createdAt,value
2018-04-12T00:00:45.190Z,74.58
2018-04-12T00:03:11.228Z,74.16
2018-04-12T00:05:36.911Z,73.89
2018-04-12T00:08:02.580Z,74.09
2018-04-12T00:10:28.248Z,73.98
2018-04-12T00:12:53.951Z,74.29
2018-04-12T00:15:19.630Z,74.52
2018-04-12T00:17:45.351Z,74.32
2018-04-12T00:20:11.015Z,74.09
2018-04-12T00:22:36.701Z,74.10
2018-04-12T00:25:02.371Z,73.82
2018-04-12T00:27:28.067Z,73.36
2018-04-12T00:29:53.722Z,72.92
2018-04-12T00:32:19.390Z,72.78
2018-04-12T00:34:45.063Z,72.87
2018-04-12T00:37:10.723Z,72.88
2018-04-12T00:39:36.393Z,73.06
2018-04-12T00:42:02.054Z,72.71
2018-04-12T00:44:27.930Z,72.54
2018-04-12T00:46:53.643Z,72.66
2018-04-12T00:49:19.336Z,73.06
2018-04-12T00:51:45.002Z,73.42
2018-04-12T00:54:10.712Z,73.71
2018-04-12T00:56:36.366Z,74.13
2018-04-12T00:59:02.146Z,74.52
2018-04-12T01:01:27.825Z,74.64
2018-04-12T01:03:53.494Z,74.71
2018-04-12T01:06:19.192Z,74.52
2018-04-12T01:08:44.878Z,74.21
2018-04-12T01:11:10.538Z,74.07
2018-04-12T01:13:36.241Z,74.31
2018-04-12T01:16:01.915Z,74.62
2018-04-12T01:18:27.583Z,74.84
2018-04-12T01:20:53.269Z,74.98
2018-04-12T01:23:19.013Z,75.11
2018-04-12T01:25:44.725Z,74.85
2018-04-12T01:28:10.383Z,74.54
2018-04-12T01:30:36.065Z,74.49
2018-04-12T01:33:07.808Z,74.56
2018-04-12T01:35:33.508Z,74.35
2018-04-12T01:37:59.162Z,74.50
2018-04-12T01:40:24.859Z,74.50
2018-04-12T01:42:50.528Z,74.16
2018-04-12T01:45:16.323Z,74.09
2018-04-12T01:47:41.987Z,73.72
2018-04-12T01:50:07.687Z,73.78
2018-04-12T01:52:33.365Z,73.74
2018-04-12T01:54:59.078Z,73.58
2018-04-12T01:57:24.750Z,73.56
2018-04-12T01:59:50.444Z,73.17
2018-04-12T02:02:16.116Z,73.35
2018-04-12T02:04:42.083Z,73.61
2018-04-12T02:07:07.808Z,73.49
2018-04-12T02:09:33.472Z,73.48
2018-04-12T02:11:59.194Z,73.96
2018-04-12T02:14:24.872Z,74.04
2018-04-12T02:16:50.596Z,74.40
2018-04-12T02:19:16.254Z,74.55
2018-04-12T02:21:41.944Z,74.61
2018-04-12T02:24:07.796Z,74.14
2018-04-12T02:26:33.486Z,73.76
2018-04-12T02:28:59.151Z,73.81
2018-04-12T02:31:24.867Z,73.94
2018-04-12T02:33:50.572Z,73.96
2018-04-12T02:36:16.243Z,74.06
2018-04-12T02:38:41.943Z,74.08
2018-04-12T02:41:07.623Z,73.75
2018-04-12T02:43:33.291Z,73.65
2018-04-12T02:45:58.955Z,74.26
2018-04-12T02:48:24.643Z,74.47
2018-04-12T02:50:50.323Z,74.65
2018-04-12T02:53:16.019Z,74.79
2018-04-12T02:55:41.683Z,75.08
2018-04-12T02:58:07.393Z,75.24
2018-04-12T03:00:33.063Z,75.52
2018-04-12T03:02:58.750Z,75.64
2018-04-12T03:05:24.443Z,75.69
2018-04-12T03:07:50.148Z,76.02
2018-04-12T03:10:15.813Z,75.98
2018-04-12T03:12:41.537Z,76.37
2018-04-12T03:15:07.179Z,76.52
2018-04-12T03:17:32.896Z,76.91
2018-04-12T03:19:58.547Z,77.14
2018-04-12T03:22:24.223Z,77.31
2018-04-12T03:24:49.911Z,77.49
2018-04-12T03:27:15.587Z,77.69
2018-04-12T03:29:41.292Z,77.85
2018-04-12T03:32:06.967Z,77.72
2018-04-12T03:34:32.638Z,77.93
2018-04-12T03:36:58.304Z,78.09
2018-04-12T03:39:23.996Z,78.02
2018-04-12T03:41:49.651Z,78.07
2018-04-12T03:44:15.343Z,78.42
2018-04-12T03:46:41.011Z,78.61
2018-04-12T03:49:06.748Z,78.84
2018-04-12T03:51:32.403Z,79.02
2018-04-12T03:53:58.131Z,79.12
2018-04-12T03:56:23.780Z,79.08
2018-04-12T03:58:49.719Z,79.28
2018-04-12T04:01:15.390Z,79.36
2018-04-12T04:03:41.065Z,79.12
2018-04-12T04:06:06.741Z,79.00
2018-04-12T04:08:32.435Z,78.91
2018-04-12T04:10:58.103Z,79.11
2018-04-12T04:13:23.784Z,78.79
2018-04-12T04:15:55.606Z,78.47
2018-04-12T04:18:27.466Z,78.15
2018-04-12T04:20:59.337Z,78.37
2018-04-12T04:23:25.006Z,78.35
2018-04-12T04:25:50.698Z,78.46
2018-04-12T04:28:16.364Z,78.42
2018-04-12T04:30:42.042Z,78.22
2018-04-12T04:33:07.753Z,78.02
2018-04-12T04:35:33.406Z,77.89
2018-04-12T04:37:59.090Z,77.66
2018-04-12T04:40:24.816Z,77.60
2018-04-12T04:42:50.492Z,77.75
2018-04-12T04:45:16.183Z,77.94
2018-04-12T04:47:41.873Z,78.09
2018-04-12T04:50:07.551Z,78.46
2018-04-12T04:52:33.211Z,78.44
2018-04-12T04:54:58.900Z,78.17
2018-04-12T04:57:24.607Z,78.14
2018-04-12T04:59:50.306Z,78.21
2018-04-12T05:02:15.993Z,78.17
2018-04-12T05:04:41.705Z,78.07
2018-04-12T05:07:07.363Z,77.70
2018-04-12T05:09:33.071Z,77.92
2018-04-12T05:11:58.750Z,78.05
2018-04-12T05:14:24.419Z,78.39
2018-04-12T05:16:50.115Z,78.52
2018-04-12T05:19:15.798Z,78.66
2018-04-12T05:21:41.499Z,78.66
2018-04-12T05:24:07.175Z,78.43
2018-04-12T05:26:32.875Z,78.42
2018-04-12T05:28:58.548Z,78.47
2018-04-12T05:31:24.255Z,78.53
2018-04-12T05:33:49.934Z,78.54
2018-04-12T05:36:15.694Z,78.64
2018-04-12T05:38:41.412Z,78.63
2018-04-12T05:41:07.135Z,78.51
2018-04-12T05:43:32.800Z,78.48
2018-04-12T05:45:58.491Z,78.33
2018-04-12T05:48:24.167Z,78.02
2018-04-12T05:50:49.847Z,77.56
2018-04-12T05:53:15.514Z,77.61
2018-04-12T05:55:41.179Z,77.62
2018-04-12T05:58:07.043Z,77.29
2018-04-12T06:00:32.734Z,77.35
2018-04-12T06:02:58.679Z,77.12
2018-04-12T06:05:24.351Z,76.88
2018-04-12T06:07:50.050Z,76.58
2018-04-12T06:10:15.762Z,76.45
2018-04-12T06:12:41.494Z,76.47
2018-04-12T06:15:07.156Z,76.58
2018-04-12T06:17:32.878Z,76.66
2018-04-12T06:19:58.583Z,76.65
2018-04-12T06:22:24.233Z,76.68
2018-04-12T06:24:49.927Z,76.99
2018-04-12T06:27:15.603Z,76.69
2018-04-12T06:29:41.295Z,76.69
2018-04-12T06:32:07.009Z,76.81
2018-04-12T06:34:32.709Z,77.00
2018-04-12T06:36:58.367Z,76.82
2018-04-12T06:39:24.058Z,76.65
2018-04-12T06:41:49.735Z,76.45
2018-04-12T06:44:15.429Z,75.98
2018-04-12T06:46:41.561Z,76.39
2018-04-12T06:49:07.201Z,76.01
2018-04-12T06:51:32.953Z,76.14
2018-04-12T06:53:58.655Z,75.72
2018-04-12T06:56:24.334Z,75.22
2018-04-12T06:58:50.073Z,74.92
2018-04-12T07:01:15.760Z,74.76
2018-04-12T07:03:41.414Z,74.38
2018-04-12T07:06:07.090Z,74.35
2018-04-12T07:08:32.808Z,74.10
2018-04-12T07:10:58.493Z,73.87
2018-04-12T07:13:24.143Z,73.40
2018-04-12T07:15:50.068Z,73.30
2018-04-12T07:18:15.724Z,73.04
2018-04-12T07:20:41.403Z,72.96
2018-04-12T07:23:07.067Z,72.98
2018-04-12T07:25:32.943Z,73.10
2018-04-12T07:27:58.647Z,72.73
2018-04-12T07:30:24.335Z,72.51
2018-04-12T07:32:49.996Z,72.39
2018-04-12T07:35:15.688Z,71.98
2018-04-12T07:37:41.384Z,71.71
2018-04-12T07:40:07.078Z,71.95
2018-04-12T07:42:32.748Z,71.67
2018-04-12T07:44:58.420Z,71.12
2018-04-12T07:47:24.111Z,71.43
2018-04-12T07:49:49.795Z,70.98
2018-04-12T07:52:15.481Z,70.65
2018-04-12T07:54:41.142Z,70.16
2018-04-12T07:57:06.829Z,69.87
2018-04-12T07:59:32.487Z,70.36
2018-04-12T08:01:58.181Z,70.47
2018-04-12T08:04:23.858Z,70.20
2018-04-12T08:06:49.570Z,70.50
2018-04-12T08:09:15.231Z,70.62
2018-04-12T08:11:40.907Z,70.78
2018-04-12T08:14:06.560Z,70.99
2018-04-12T08:16:32.256Z,71.06
2018-04-12T08:18:57.899Z,71.00
2018-04-12T08:21:23.597Z,70.84
2018-04-12T08:23:49.272Z,70.58
2018-04-12T08:26:14.979Z,70.54
2018-04-12T08:28:40.652Z,70.14
2018-04-12T08:31:06.576Z,70.15
2018-04-12T08:33:32.261Z,70.15
2018-04-12T08:35:57.943Z,69.57
2018-04-12T08:38:23.613Z,69.10
2018-04-12T08:40:49.287Z,69.10
2018-04-12T08:43:15.059Z,68.96
2018-04-12T08:45:40.718Z,68.99
2018-04-12T08:48:06.763Z,68.96
2018-04-12T08:50:32.425Z,68.63
2018-04-12T08:52:58.119Z,68.28
2018-04-12T08:55:23.815Z,68.02
2018-04-12T08:57:49.505Z,67.94
2018-04-12T09:00:15.229Z,67.74
2018-04-12T09:02:40.915Z,67.49
2018-04-12T09:05:06.580Z,67.34
2018-04-12T09:07:32.271Z,66.60
2018-04-12T09:09:57.947Z,66.37
2018-04-12T09:12:23.628Z,66.33
2018-04-12T09:14:49.528Z,66.54
2018-04-12T09:17:15.223Z,66.51
2018-04-12T09:19:40.919Z,66.60
2018-04-12T09:22:06.627Z,66.37
2018-04-12T09:24:32.315Z,66.12
2018-04-12T09:26:57.996Z,65.95
2018-04-12T09:29:23.674Z,66.31
2018-04-12T09:31:49.390Z,66.42
2018-04-12T09:34:15.086Z,66.16
2018-04-12T09:36:40.791Z,66.35
2018-04-12T09:39:06.756Z,66.22
2018-04-12T09:41:32.457Z,65.53
2018-04-12T09:43:58.111Z,65.06
2018-04-12T09:46:23.798Z,64.70
2018-04-12T09:48:49.485Z,64.67
2018-04-12T09:51:15.142Z,64.29
2018-04-12T09:53:40.836Z,64.37
2018-04-12T09:56:06.538Z,64.43
2018-04-12T09:58:32.367Z,64.35
2018-04-12T10:00:58.066Z,64.39
2018-04-12T10:03:23.765Z,64.55
2018-04-12T10:05:55.597Z,64.17
2018-04-12T10:08:26.202Z,64.07
2018-04-12T10:10:51.867Z,64.10
2018-04-12T10:13:17.537Z,63.25
2018-04-12T10:15:43.204Z,61.99
2018-04-12T10:18:08.882Z,61.61
2018-04-12T10:20:34.660Z,60.60
2018-04-12T10:23:00.358Z,60.37
2018-04-12T10:25:26.070Z,59.63
2018-04-12T10:27:51.799Z,58.41
2018-04-12T10:30:17.469Z,58.96
2018-04-12T10:32:43.146Z,58.00
2018-04-12T10:35:08.823Z,57.92
2018-04-12T10:37:34.487Z,57.82
2018-04-12T10:40:00.185Z,57.54
2018-04-12T10:42:25.856Z,57.23
2018-04-12T10:44:51.541Z,56.27
2018-04-12T10:47:17.261Z,56.14
2018-04-12T10:49:42.935Z,55.98
2018-04-12T10:52:08.602Z,55.76
2018-04-12T10:54:34.303Z,55.27
2018-04-12T10:57:00.020Z,55.64
2018-04-12T10:59:25.758Z,55.92
2018-04-12T11:01:51.453Z,55.87
2018-04-12T11:04:17.150Z,56.09
2018-04-12T11:06:43.385Z,56.04
2018-04-12T11:09:09.063Z,55.89
2018-04-12T11:11:34.865Z,55.86
2018-04-12T11:14:00.527Z,55.59
2018-04-12T11:16:26.231Z,55.95
2018-04-12T11:18:51.890Z,54.88
2018-04-12T11:21:17.615Z,54.46
2018-04-12T11:23:43.337Z,53.87
2018-04-12T11:26:09.000Z,53.79
2018-04-12T11:28:34.665Z,53.57
2018-04-12T11:31:00.363Z,53.06
2018-04-12T11:33:26.045Z,53.14
2018-04-12T11:35:51.703Z,52.91
2018-04-12T11:38:17.368Z,53.54
2018-04-12T11:40:43.065Z,53.78
2018-04-12T11:43:08.771Z,53.66
2018-04-12T11:45:34.461Z,53.68
2018-04-12T11:48:00.139Z,52.02
2018-04-12T11:50:25.819Z,51.40
2018-04-12T11:52:51.503Z,51.15
2018-04-12T11:55:17.169Z,50.78
2018-04-12T11:57:42.842Z,50.69
2018-04-12T12:00:08.551Z,51.06
2018-04-12T12:02:34.247Z,50.75
2018-04-12T12:04:59.968Z,50.32
2018-04-12T12:07:25.750Z,50.18
2018-04-12T12:09:51.417Z,50.93
2018-04-12T12:12:17.115Z,51.37
2018-04-12T12:14:42.778Z,51.14
2018-04-12T12:17:08.455Z,51.02
2018-04-12T12:19:34.212Z,51.63
2018-04-12T12:22:02.879Z,51.88
2018-04-12T12:24:28.623Z,52.11
2018-04-12T12:26:54.291Z,52.09
2018-04-12T12:29:20.002Z,52.30
2018-04-12T12:31:45.671Z,52.49
2018-04-12T12:34:11.335Z,52.79
2018-04-12T12:36:37.087Z,53.29
2018-04-12T12:39:02.815Z,53.79
2018-04-12T12:41:28.483Z,54.65
2018-04-12T12:43:54.168Z,55.15
2018-04-12T12:46:19.860Z,55.25
2018-04-12T12:48:45.546Z,55.62
2018-04-12T12:51:11.223Z,55.82
2018-04-12T12:53:36.912Z,55.84
2018-04-12T12:56:02.655Z,55.72
2018-04-12T12:58:28.297Z,55.35
2018-04-12T13:00:53.976Z,54.83
2018-04-12T13:03:19.652Z,54.77
2018-04-12T13:05:45.327Z,54.55
2018-04-12T13:08:11.014Z,54.82
2018-04-12T13:10:36.679Z,54.20
2018-04-12T13:13:02.384Z,53.92
2018-04-12T13:15:28.072Z,53.33
2018-04-12T13:17:53.735Z,53.28
2018-04-12T13:20:19.419Z,53.16
2018-04-12T13:22:45.093Z,53.17
2018-04-12T13:25:10.771Z,52.79
2018-04-12T13:27:36.447Z,52.55
2018-04-12T13:30:02.165Z,52.33
2018-04-12T13:32:27.870Z,51.89
2018-04-12T13:34:53.554Z,51.60
2018-04-12T13:37:19.216Z,51.65
2018-04-12T13:39:44.935Z,51.50
2018-04-12T13:42:10.611Z,50.98
2018-04-12T13:44:36.271Z,51.10
2018-04-12T13:47:02.201Z,50.57
2018-04-12T13:49:27.930Z,50.54
2018-04-12T13:51:53.639Z,50.36
2018-04-12T13:54:19.353Z,50.20
2018-04-12T13:56:45.081Z,50.46
2018-04-12T13:59:10.739Z,50.30
2018-04-12T14:01:36.511Z,50.28
2018-04-12T14:04:02.193Z,50.40
2018-04-12T14:06:27.850Z,50.45
2018-04-12T14:08:53.546Z,50.60
2018-04-12T14:11:19.237Z,50.95
2018-04-12T14:13:44.934Z,51.02
2018-04-12T14:16:10.623Z,51.01
2018-04-12T14:18:36.292Z,51.10
2018-04-12T14:21:01.986Z,51.23
2018-04-12T14:23:27.657Z,51.17
2018-04-12T14:25:53.332Z,51.25
2018-04-12T14:28:18.986Z,51.61
2018-04-12T14:30:44.651Z,51.74
2018-04-12T14:33:10.346Z,51.97
2018-04-12T14:35:36.152Z,52.16
2018-04-12T14:38:01.819Z,52.23
2018-04-12T14:40:27.509Z,52.04
2018-04-12T14:42:53.195Z,52.25
2018-04-12T14:45:18.869Z,52.41
2018-04-12T14:47:44.567Z,52.64
2018-04-12T14:50:10.263Z,52.72
2018-04-12T14:52:35.947Z,52.76
2018-04-12T14:55:01.618Z,52.61
2018-04-12T14:57:27.318Z,52.58
2018-04-12T14:59:52.974Z,52.75
2018-04-12T15:02:18.663Z,52.61
2018-04-12T15:04:44.315Z,52.14
2018-04-12T15:07:10.018Z,52.08
2018-04-12T15:09:35.694Z,52.43
2018-04-12T15:12:01.388Z,52.92
2018-04-12T15:14:27.054Z,52.99
2018-04-12T15:16:52.730Z,53.17
2018-04-12T15:19:18.391Z,52.59
2018-04-12T15:21:44.099Z,52.32
2018-04-12T15:24:09.800Z,52.09
2018-04-12T15:26:35.523Z,52.19
2018-04-12T15:29:01.237Z,52.34
2018-04-12T15:31:26.927Z,52.33
2018-04-12T15:33:52.630Z,52.37
2018-04-12T15:36:18.291Z,52.52
2018-04-12T15:38:44.003Z,52.66
2018-04-12T15:41:09.663Z,52.81
2018-04-12T15:43:37.333Z,52.53
2018-04-12T15:46:03.147Z,52.45
2018-04-12T15:48:29.404Z,52.54
2018-04-12T15:50:55.807Z,52.58
2018-04-12T15:53:22.312Z,52.92
2018-04-12T15:55:48.087Z,52.92
2018-04-12T15:58:13.787Z,52.83
2018-04-12T16:00:39.478Z,52.90
2018-04-12T16:03:05.169Z,53.01
2018-04-12T16:05:30.882Z,53.31
2018-04-12T16:07:56.707Z,53.47
2018-04-12T16:10:22.406Z,53.60
2018-04-12T16:12:48.079Z,54.02
2018-04-12T16:15:13.751Z,54.20
2018-04-12T16:17:39.436Z,54.39
2018-04-12T16:20:05.131Z,54.50
2018-04-12T16:22:30.923Z,54.62
2018-04-12T16:24:56.604Z,54.79
2018-04-12T16:27:22.287Z,54.87
2018-04-12T16:29:47.960Z,54.91
2018-04-12T16:32:13.658Z,55.14
2018-04-12T16:34:39.329Z,55.37
2018-04-12T16:37:05.002Z,55.67
2018-04-12T16:39:30.683Z,55.53
2018-04-12T16:41:56.399Z,55.51
2018-04-12T16:44:22.074Z,55.62
2018-04-12T16:46:47.772Z,55.84
2018-04-12T16:49:13.525Z,56.13
2018-04-12T16:51:39.223Z,56.28
2018-04-12T16:54:04.920Z,56.50
2018-04-12T16:56:30.615Z,56.76
2018-04-12T16:58:56.314Z,56.95
2018-04-12T17:01:22.078Z,57.23
2018-04-12T17:03:47.743Z,57.58
2018-04-12T17:06:13.459Z,57.80
2018-04-12T17:08:39.147Z,57.91
2018-04-12T17:11:04.859Z,58.13
2018-04-12T17:13:30.551Z,58.29
2018-04-12T17:15:56.207Z,58.36
2018-04-12T17:18:22.182Z,58.76
2018-04-12T17:20:48.138Z,58.92
2018-04-12T17:23:13.881Z,59.06
2018-04-12T17:25:39.627Z,59.26
2018-04-12T17:28:05.307Z,59.52
2018-04-12T17:30:31.868Z,60.00
2018-04-12T17:32:57.562Z,60.12
2018-04-12T17:35:23.228Z,60.35
2018-04-12T17:37:48.928Z,60.54
2018-04-12T17:40:14.586Z,60.46
2018-04-12T17:42:40.396Z,60.57
2018-04-12T17:45:06.075Z,60.63
2018-04-12T17:47:31.795Z,60.64
2018-04-12T17:49:57.478Z,60.81
2018-04-12T17:52:23.174Z,60.85
2018-04-12T17:54:48.854Z,60.93
2018-04-12T17:57:14.557Z,61.03
2018-04-12T17:59:40.239Z,61.17
2018-04-12T18:02:05.944Z,61.11
2018-04-12T18:04:31.663Z,61.06
2018-04-12T18:06:57.365Z,60.92
2018-04-12T18:09:23.060Z,61.07
2018-04-12T18:11:48.797Z,61.14
2018-04-12T18:14:15.398Z,61.24
2018-04-12T18:16:41.980Z,61.42
2018-04-12T18:19:07.654Z,61.43
2018-04-12T18:21:33.330Z,61.51
2018-04-12T18:23:59.002Z,61.71
2018-04-12T18:26:24.734Z,61.79
2018-04-12T18:28:50.410Z,62.02
2018-04-12T18:31:16.549Z,62.16
2018-04-12T18:33:42.234Z,62.11
2018-04-12T18:36:07.900Z,62.20
2018-04-12T18:38:33.585Z,62.36
2018-04-12T18:40:59.243Z,62.53
2018-04-12T18:43:24.917Z,62.62
2018-04-12T18:45:50.858Z,62.81
2018-04-12T18:48:16.531Z,63.12
2018-04-12T18:50:42.260Z,63.41
2018-04-12T18:53:07.925Z,63.67
2018-04-12T18:55:33.673Z,63.75
2018-04-12T18:57:59.334Z,63.79
2018-04-12T19:00:25.062Z,64.02
2018-04-12T19:02:50.736Z,64.24
2018-04-12T19:05:16.414Z,64.35
2018-04-12T19:07:42.103Z,64.30
2018-04-12T19:10:07.769Z,64.33
2018-04-12T19:12:33.451Z,64.36
2018-04-12T19:14:59.142Z,64.31
2018-04-12T19:17:24.860Z,64.25
2018-04-12T19:19:50.535Z,64.48
2018-04-12T19:22:16.200Z,64.57
2018-04-12T19:24:41.967Z,64.78
2018-04-12T19:27:07.643Z,64.60
2018-04-12T19:29:33.315Z,64.79
2018-04-12T19:31:59.064Z,65.02
2018-04-12T19:34:24.749Z,65.28
2018-04-12T19:36:50.414Z,65.37
2018-04-12T19:39:16.079Z,65.66
2018-04-12T19:41:41.747Z,65.80
2018-04-12T19:44:07.427Z,65.74
2018-04-12T19:46:33.150Z,65.98
2018-04-12T19:48:58.834Z,66.23
2018-04-12T19:51:24.519Z,66.44
2018-04-12T19:53:50.170Z,66.39
2018-04-12T19:56:15.920Z,66.48
2018-04-12T19:58:41.567Z,66.48
2018-04-12T20:01:07.244Z,66.50
2018-04-12T20:03:32.909Z,66.61
2018-04-12T20:05:58.571Z,66.64
2018-04-12T20:08:24.299Z,66.67
2018-04-12T20:10:49.975Z,66.55
2018-04-12T20:13:15.668Z,66.49
2018-04-12T20:15:41.315Z,66.59
2018-04-12T20:18:07.058Z,66.59
2018-04-12T20:20:32.742Z,66.50
2018-04-12T20:22:58.419Z,66.47
2018-04-12T20:25:24.383Z,66.45
2018-04-12T20:27:50.059Z,66.72
2018-04-12T20:30:15.725Z,66.87
2018-04-12T20:32:41.418Z,66.81
2018-04-12T20:35:07.099Z,66.80
2018-04-12T20:37:32.760Z,66.99
2018-04-12T20:39:58.466Z,67.13
2018-04-12T20:42:24.123Z,67.19
2018-04-12T20:44:49.803Z,67.39
2018-04-12T20:47:15.467Z,67.46
2018-04-12T20:49:41.131Z,67.22
2018-04-12T20:52:06.809Z,67.32
2018-04-12T20:54:32.486Z,67.55
2018-04-12T20:56:58.390Z,67.85
2018-04-12T20:59:24.075Z,67.93
2018-04-12T21:01:49.724Z,68.14
2018-04-12T21:04:15.413Z,68.33
2018-04-12T21:06:41.082Z,68.47
2018-04-12T21:09:06.802Z,68.55
2018-04-12T21:11:32.734Z,68.64
2018-04-12T21:13:58.395Z,68.88
2018-04-12T21:16:24.074Z,68.74
2018-04-12T21:18:49.771Z,68.93
2018-04-12T21:21:15.443Z,68.95
2018-04-12T21:23:41.282Z,69.29
2018-04-12T21:26:06.941Z,69.38
2018-04-12T21:28:32.824Z,69.48
2018-04-12T21:30:58.506Z,69.50
2018-04-12T21:33:24.497Z,69.46
2018-04-12T21:35:50.170Z,69.47
2018-04-12T21:38:15.827Z,69.47
2018-04-12T21:40:41.516Z,69.51
2018-04-12T21:43:07.182Z,69.61
2018-04-12T21:45:32.860Z,69.54
2018-04-12T21:47:58.595Z,69.56
2018-04-12T21:50:24.293Z,69.57
2018-04-12T21:52:49.966Z,69.48
2018-04-12T21:55:15.653Z,69.34
2018-04-12T21:57:41.341Z,69.24
2018-04-12T22:00:07.040Z,69.28
2018-04-12T22:02:32.752Z,69.34
2018-04-12T22:04:58.411Z,69.65
2018-04-12T22:07:24.199Z,69.86
2018-04-12T22:09:49.858Z,69.89
2018-04-12T22:12:15.532Z,69.93
2018-04-12T22:14:41.223Z,69.87
2018-04-12T22:17:06.915Z,69.85
2018-04-12T22:19:32.590Z,69.80
2018-04-12T22:21:58.297Z,69.80
2018-04-12T22:24:24.027Z,70.00
2018-04-12T22:26:49.915Z,70.10
2018-04-12T22:29:15.662Z,70.24
2018-04-12T22:31:41.374Z,70.24
2018-04-12T22:34:07.038Z,70.24
2018-04-12T22:36:32.728Z,70.23
2018-04-12T22:38:58.431Z,70.24
2018-04-12T22:41:24.106Z,70.24
2018-04-12T22:43:49.775Z,70.25
2018-04-12T22:46:15.608Z,70.23
2018-04-12T22:48:41.285Z,70.05
2018-04-12T22:51:07.121Z,69.98
2018-04-12T22:53:32.807Z,70.01
2018-04-12T22:55:58.526Z,70.09
2018-04-12T22:58:24.194Z,70.10
2018-04-12T23:00:49.859Z,70.09
2018-04-12T23:03:15.695Z,70.13
2018-04-12T23:05:41.375Z,69.91
2018-04-12T23:08:07.048Z,69.91
2018-04-12T23:10:32.722Z,69.75
2018-04-12T23:12:58.395Z,69.93
2018-04-12T23:15:24.079Z,69.99
2018-04-12T23:17:50.186Z,70.18
2018-04-12T23:20:15.899Z,70.24
2018-04-12T23:22:41.618Z,70.01
2018-04-12T23:25:07.328Z,70.09
2018-04-12T23:27:32.982Z,70.31
2018-04-12T23:29:58.655Z,70.44
2018-04-12T23:32:24.320Z,70.51
2018-04-12T23:34:50.037Z,70.54
2018-04-12T23:37:15.703Z,70.56
2018-04-12T23:39:41.362Z,70.55
2018-04-12T23:42:07.044Z,70.70
2018-04-12T23:44:32.702Z,70.78
2018-04-12T23:46:58.375Z,70.78
2018-04-12T23:49:24.098Z,70.91
2018-04-12T23:51:49.812Z,71.20
2018-04-12T23:54:15.503Z,71.39
2018-04-12T23:56:41.174Z,71.51
2018-04-12T23:59:06.831Z,71.59
